createdAt,value
2023-11-07T00:04:01.863Z,88.13
2023-11-07T00:09:05.480Z,88.20
2023-11-07T00:14:08.867Z,87.73
2023-11-07T00:19:13.031Z,87.89
2023-11-07T00:24:16.601Z,88.06
2023-11-07T00:29:21.768Z,88.11
2023-11-07T00:34:25.347Z,88.78
2023-11-07T00:39:28.688Z,89.18
2023-11-07T00:44:33.159Z,89.04
2023-11-07T00:49:36.617Z,88.61
2023-11-07T00:54:39.984Z,88.82
2023-11-07T00:59:43.465Z,89.37
2023-11-07T01:04:46.938Z,89.33
2023-11-07T01:09:50.550Z,89.66
2023-11-07T01:14:53.998Z,89.81
2023-11-07T01:19:57.464Z,90.16
2023-11-07T01:25:00.829Z,90.29
2023-11-07T01:30:06.340Z,90.91
2023-11-07T01:35:13.013Z,91.13
2023-11-07T01:40:16.371Z,91.12
2023-11-07T01:45:19.883Z,90.89
2023-11-07T01:50:23.380Z,90.69
2023-11-07T01:55:26.861Z,90.51
2023-11-07T02:00:31.421Z,90.32
2023-11-07T02:05:36.059Z,90.16
2023-11-07T02:10:39.681Z,90.08
2023-11-07T02:15:43.099Z,89.94
2023-11-07T02:20:49.621Z,89.81
2023-11-07T02:25:53.449Z,89.70
2023-11-07T02:30:56.824Z,89.57
2023-11-07T02:36:01.608Z,89.46
2023-11-07T02:41:06.315Z,89.33
2023-11-07T02:46:09.686Z,89.15
2023-11-07T02:51:19.804Z,88.83
2023-11-07T02:56:29.919Z,88.67
2023-11-07T03:01:33.960Z,88.40
2023-11-07T03:06:37.428Z,88.26
2023-11-07T03:11:41.142Z,88.02
2023-11-07T03:16:44.626Z,87.99
2023-11-07T03:21:48.023Z,87.77
2023-11-07T03:26:51.505Z,87.71
2023-11-07T03:31:55.153Z,87.61
2023-11-07T03:36:58.609Z,87.49
2023-11-07T03:42:02.473Z,87.45
2023-11-07T03:47:07.232Z,87.50
2023-11-07T03:52:10.614Z,87.49
2023-11-07T03:57:13.951Z,87.57
2023-11-07T04:02:17.433Z,87.69
2023-11-07T04:07:20.817Z,87.69
2023-11-07T04:12:24.322Z,87.73
2023-11-07T04:17:27.736Z,87.72
2023-11-07T04:22:31.217Z,87.66
2023-11-07T04:27:36.200Z,87.60
2023-11-07T04:32:41.800Z,87.51
2023-11-07T04:37:45.249Z,87.61
2023-11-07T04:42:49.631Z,87.71
2023-11-07T04:47:53.193Z,87.84
2023-11-07T04:52:56.741Z,88.03
2023-11-07T04:58:02.707Z,88.12
2023-11-07T05:03:06.959Z,88.13
2023-11-07T05:08:10.542Z,88.06
2023-11-07T05:13:15.916Z,88.01
2023-11-07T05:18:20.358Z,87.90
2023-11-07T05:23:24.166Z,87.79
2023-11-07T05:28:27.528Z,87.54
2023-11-07T05:33:32.376Z,87.44
2023-11-07T05:38:35.855Z,87.59
2023-11-07T05:43:44.650Z,87.91
2023-11-07T05:48:49.466Z,88.06
2023-11-07T05:53:53.201Z,88.29
2023-11-07T05:58:56.651Z,88.35
2023-11-07T06:04:00.202Z,88.40
2023-11-07T06:09:04.258Z,88.44
2023-11-07T06:14:07.643Z,88.54
2023-11-07T06:19:12.490Z,88.57
2023-11-07T06:24:17.249Z,88.51
2023-11-07T06:29:21.651Z,88.40
2023-11-07T06:34:36.024Z,88.42
2023-11-07T06:39:45.828Z,88.26
2023-11-07T06:44:49.720Z,88.10
2023-11-07T06:49:53.380Z,88.04
2023-11-07T06:54:56.985Z,87.54
2023-11-07T07:00:00.430Z,84.05
2023-11-07T07:05:12.357Z,78.17
2023-11-07T07:10:15.848Z,69.96
2023-11-07T07:15:19.558Z,68.73
2023-11-07T07:20:25.560Z,62.30
2023-11-07T09:47:54.176Z,76.95
2023-11-07T09:53:19.468Z,77.01
2023-11-07T09:58:33.789Z,77.13
2023-11-07T10:03:40.735Z,77.34
2023-11-07T10:08:43.931Z,77.04
2023-11-07T10:14:25.929Z,77.90
2023-11-07T10:19:30.989Z,78.15
2023-11-07T10:24:46.569Z,78.19
2023-11-07T10:29:59.709Z,77.58
2023-11-07T10:35:03.325Z,77.54
2023-11-07T10:40:06.948Z,78.13
2023-11-07T10:45:15.300Z,78.40
2023-11-07T10:50:18.416Z,77.85
2023-11-07T10:55:41.750Z,78.32
2023-11-07T11:00:51.402Z,78.55
2023-11-07T11:06:01.404Z,78.19
2023-11-07T11:11:04.878Z,78.43
2023-11-07T11:16:09.051Z,78.38
2023-11-07T11:21:17.823Z,78.02
2023-11-07T11:26:31.327Z,77.99
2023-11-07T11:31:42.988Z,77.44
2023-11-07T11:37:00.932Z,78.06
2023-11-07T11:42:06.632Z,78.16
2023-11-07T11:47:10.091Z,77.59
2023-11-07T11:52:35.287Z,76.77
2023-11-07T11:58:43.794Z,76.87
2023-11-07T12:04:37.116Z,76.81
2023-11-07T12:09:50.519Z,76.48
2023-11-07T12:15:10.197Z,76.74
2023-11-07T12:20:17.809Z,76.36
2023-11-07T12:25:22.129Z,76.73
2023-11-07T12:30:25.524Z,76.64
2023-11-07T12:35:37.650Z,75.96
2023-11-07T12:40:41.109Z,76.22
2023-11-07T12:45:48.779Z,76.11
2023-11-07T12:50:50.974Z,75.92
2023-11-07T12:55:55.163Z,76.26
2023-11-07T13:00:59.464Z,76.61
2023-11-07T13:06:04.876Z,77.05
2023-11-07T13:11:09.633Z,77.44
2023-11-07T13:16:12.255Z,77.84
2023-11-07T13:21:15.403Z,78.02
2023-11-07T13:26:18.349Z,77.83
2023-11-07T13:31:20.417Z,77.89
2023-11-07T13:36:23.109Z,77.95
2023-11-07T13:41:25.183Z,77.93
2023-11-07T13:46:28.236Z,77.87
2023-11-07T13:51:30.479Z,77.74
2023-11-07T13:56:33.077Z,77.83
2023-11-07T14:01:39.188Z,77.86
2023-11-07T14:06:41.669Z,77.99
2023-11-07T14:11:44.313Z,78.12
2023-11-07T14:16:47.612Z,78.44
2023-11-07T14:21:50.285Z,78.78
2023-11-07T14:26:54.753Z,79.19
2023-11-07T14:31:56.929Z,79.31
2023-11-07T14:36:58.993Z,79.69
2023-11-07T14:42:02.920Z,80.00
2023-11-07T14:47:05.090Z,80.54
2023-11-07T14:52:08.885Z,80.65
2023-11-07T14:57:12.194Z,82.18
2023-11-07T15:02:22.231Z,81.48
2023-11-07T15:07:29.776Z,81.70
2023-11-07T15:12:31.872Z,82.10
2023-11-07T15:17:36.910Z,83.08
2023-11-07T15:22:40.399Z,83.40
2023-11-07T15:27:44.306Z,82.81
2023-11-07T15:32:48.371Z,83.93
2023-11-07T15:37:50.512Z,84.10
2023-11-07T15:42:52.712Z,83.78
2023-11-07T15:47:54.838Z,83.19
2023-11-07T15:53:07.477Z,83.30
2023-11-07T15:58:12.115Z,83.22
2023-11-07T16:03:17.145Z,83.01
2023-11-07T16:08:19.879Z,82.87
2023-11-07T16:13:22.359Z,82.72
2023-11-07T16:18:27.566Z,82.63
2023-11-07T16:23:30.232Z,82.60
2023-11-07T16:28:32.294Z,82.64
2023-11-07T16:33:34.887Z,82.52
2023-11-07T16:38:37.684Z,82.52
2023-11-07T16:43:39.757Z,82.47
2023-11-07T16:48:42.255Z,82.50
2023-11-07T16:53:45.315Z,82.47
2023-11-07T16:58:48.252Z,82.41
2023-11-07T17:03:50.827Z,82.39
2023-11-07T17:08:52.961Z,82.48
2023-11-07T17:13:55.159Z,82.69
2023-11-07T17:18:58.440Z,82.82
2023-11-07T17:24:01.094Z,82.85
2023-11-07T17:29:04.056Z,82.92
2023-11-07T17:34:09.205Z,82.86
2023-11-07T17:39:18.221Z,82.78
2023-11-07T17:44:21.658Z,83.01
2023-11-07T17:49:23.815Z,83.19
2023-11-07T17:54:25.831Z,83.46
2023-11-07T17:59:27.997Z,83.39
2023-11-07T18:04:30.878Z,83.95
2023-11-07T18:09:34.846Z,84.38
2023-11-07T18:14:38.440Z,84.87
2023-11-07T18:19:40.860Z,85.23
2023-11-07T18:24:44.626Z,85.24
2023-11-07T18:29:46.628Z,85.38
2023-11-07T18:34:48.796Z,85.44
2023-11-07T18:39:51.022Z,86.03
2023-11-07T18:44:53.631Z,86.58
2023-11-07T18:49:57.742Z,87.12
2023-11-07T18:55:01.551Z,87.37
2023-11-07T19:00:04.964Z,87.49
2023-11-07T19:05:07.632Z,87.58
2023-11-07T19:10:09.816Z,87.53
2023-11-07T19:15:15.503Z,87.37
2023-11-07T19:20:18.948Z,87.50
2023-11-07T19:25:22.839Z,87.45
2023-11-07T19:30:25.819Z,87.33
2023-11-07T19:35:28.016Z,87.16
2023-11-07T19:40:32.225Z,87.20
2023-11-07T19:45:34.624Z,87.30
2023-11-07T19:50:37.204Z,87.51
2023-11-07T19:55:39.386Z,87.63
2023-11-07T20:00:41.528Z,87.78
2023-11-07T20:05:45.843Z,87.91
2023-11-07T20:10:47.880Z,87.71
2023-11-07T20:15:50.104Z,87.50
2023-11-07T20:20:52.777Z,87.56
2023-11-07T20:25:55.374Z,87.30
2023-11-07T20:30:57.501Z,87.23
2023-11-07T20:36:01.866Z,87.25
2023-11-07T20:41:04.585Z,87.43
2023-11-07T20:46:15.650Z,87.81
2023-11-07T20:51:24.713Z,87.57
2023-11-07T20:56:30.584Z,87.41
2023-11-07T21:01:33.296Z,87.36
2023-11-07T21:06:35.488Z,87.31
2023-11-07T21:11:37.836Z,87.40
2023-11-07T21:16:39.918Z,87.45
2023-11-07T21:21:42.084Z,87.36
2023-11-07T21:26:45.130Z,87.41
2023-11-07T21:31:48.369Z,87.40
2023-11-07T21:36:50.626Z,87.52
2023-11-07T21:41:53.860Z,87.51
2023-11-07T21:46:55.885Z,87.34
2023-11-07T21:51:58.369Z,87.20
2023-11-07T21:57:02.036Z,87.34
2023-11-07T22:02:04.558Z,87.62
2023-11-07T22:07:06.671Z,87.84
2023-11-07T22:12:08.975Z,87.83
2023-11-07T22:17:11.263Z,87.85
2023-11-07T22:22:15.958Z,87.73
2023-11-07T22:27:19.213Z,87.66
2023-11-07T22:32:22.585Z,87.56
2023-11-07T22:37:25.312Z,87.53
2023-11-07T22:42:28.115Z,87.43
2023-11-07T22:47:30.665Z,87.36
2023-11-07T22:52:36.216Z,87.32
2023-11-07T22:57:39.279Z,87.28
2023-11-07T23:02:41.392Z,87.22
2023-11-07T23:07:43.404Z,87.17
2023-11-07T23:12:45.475Z,87.11
2023-11-07T23:17:47.852Z,87.07
2023-11-07T23:22:50.184Z,87.07
2023-11-07T23:27:52.469Z,86.98
2023-11-07T23:32:54.710Z,86.89
2023-11-07T23:37:57.855Z,86.83
2023-11-07T23:43:01.312Z,86.78
2023-11-07T23:48:03.828Z,86.74
2023-11-07T23:53:06.553Z,86.65
2023-11-07T23:58:08.569Z,86.61
